Time;durP1;ratioP1;P1;durP2;ratioP2;P2;SDS_P1;SDS_P2;PMS_P1;PMS_P2;Temp;Humidity;BMP_temperature;BMP_pressure;BME280_temperature;BME280_humidity;BME280_pressure;Samples;Min_cycle;Max_cycle;Signal;HPM_P1;HPM_P2
2021/05/31 00:01:53;;;;;;;;;;;;;;;10.07;100.00;93134.38;5049823;28;20379;-86
2021/05/31 00:04:20;;;;;;;;;;;;;;;10.00;100.00;93131.06;5049730;28;20283;-87
2021/05/31 00:06:49;;;;;;;;;;;;;;;10.18;100.00;93127.00;5049415;28;19920;-88
2021/05/31 00:09:15;;;;;;;;;;;;;;;10.28;100.00;93122.94;5049790;28;19936;-87
2021/05/31 00:11:41;;;;;;;;;;;;;;;10.39;100.00;93126.63;5049729;28;19927;-86
2021/05/31 00:14:07;;;;;;;;;;;;;;;10.41;100.00;93131.53;5049247;28;20754;-85
2021/05/31 00:16:33;;;;;;;;;;;;;;;10.40;100.00;93129.97;5049768;28;19935;-86
2021/05/31 00:19:00;;;;;;;;;;;;;;;10.37;100.00;93126.03;5049700;28;19921;-86
2021/05/31 00:21:26;;;;;;;;;;;;;;;10.03;100.00;93125.50;5049649;28;19925;-86
2021/05/31 00:23:52;;;;;;;;;;;;;;;10.11;100.00;93120.13;5049710;28;20264;-88
2021/05/31 00:26:18;;;;;;;;;;;;;;;10.11;100.00;93124.47;5049728;28;19943;-87
2021/05/31 00:28:45;;;;;;;;;;;;;;;10.09;100.00;93121.34;5053517;28;20044;-85
2021/05/31 00:31:11;;;;;;;;;;;;;;;10.01;100.00;93118.00;5053523;28;19921;-85
2021/05/31 00:33:37;;;;;;;;;;;;;;;9.83;100.00;93118.72;5053535;28;19927;-84
2021/05/31 00:36:04;;;;;;;;;;;;;;;9.86;100.00;93118.31;5053342;28;19925;-86
2021/05/31 00:38:30;;;;;;;;;;;;;;;9.81;100.00;93109.66;5053378;28;19920;-86
2021/05/31 00:40:56;;;;;;;;;;;;;;;9.95;100.00;93108.56;5053307;28;20315;-91
2021/05/31 00:43:24;;;;;;;;;;;;;;;9.85;100.00;93115.94;5052863;28;19966;-88
2021/05/31 00:45:50;;;;;;;;;;;;;;;9.95;100.00;93112.94;5053548;28;19925;-87
2021/05/31 00:48:16;;;;;;;;;;;;;;;10.02;100.00;93117.03;5053215;28;19920;-91
2021/05/31 00:50:43;;;;;;;;;;;;;;;10.13;100.00;93120.69;5053206;28;19921;-88
2021/05/31 00:53:10;;;;;;;;;;;;;;;10.16;100.00;93111.78;5052765;28;19928;-88
2021/05/31 00:55:36;;;;;;;;;;;;;;;10.23;100.00;93112.53;5052993;28;19968;-86
2021/05/31 00:58:03;;;;;;;;;;;;;;;10.17;100.00;93110.78;5052767;28;20388;-86
2021/05/31 01:00:29;;;;;;;;;;;;;;;10.14;100.00;93106.88;5052863;28;19944;-86
2021/05/31 01:02:56;;;;;;;;;;;;;;;10.21;100.00;93106.81;5052669;28;20284;-86
2021/05/31 01:05:23;;;;;;;;;;;;;;;10.28;100.00;93102.41;5052674;28;19921;-87
2021/05/31 01:07:52;;;;;;;;;;;;;;;10.19;100.00;93105.47;5052851;28;19924;-87
2021/05/31 01:10:25;;;;;;;;;;;;;;;10.15;100.00;93100.72;5052938;28;19921;-87
2021/05/31 01:12:55;;;;;;;;;;;;;;;10.10;100.00;93095.44;5052620;28;19931;-86
2021/05/31 01:15:23;;;;;;;;;;;;;;;10.20;100.00;93102.69;5052772;28;19920;-87
2021/05/31 01:17:53;;;;;;;;;;;;;;;10.16;100.00;93098.97;5052983;28;19921;-87
2021/05/31 01:20:29;;;;;;;;;;;;;;;10.25;100.00;93107.19;5052419;28;19928;-87
2021/05/31 01:22:55;;;;;;;;;;;;;;;10.23;100.00;93101.47;5052299;28;19928;-87
2021/05/31 01:25:26;;;;;;;;;;;;;;;10.22;100.00;93099.88;5052305;28;19924;-87
2021/05/31 01:27:59;;;;;;;;;;;;;;;10.21;100.00;93095.75;5052345;28;19924;-87
2021/05/31 01:30:27;;;;;;;;;;;;;;;10.18;100.00;93096.19;5052064;28;19924;-87
2021/05/31 01:32:54;;;;;;;;;;;;;;;10.08;100.00;93092.31;5052376;28;19944;-87
2021/05/31 01:35:22;;;;;;;;;;;;;;;10.07;100.00;93087.38;5051851;28;19925;-88
2021/05/31 01:37:49;;;;;;;;;;;;;;;10.12;100.00;93092.66;5051942;28;19925;-87
2021/05/31 01:40:15;;;;;;;;;;;;;;;10.09;100.00;93088.75;5051808;28;19920;-88
2021/05/31 01:42:42;;;;;;;;;;;;;;;10.09;100.00;93075.13;5052225;28;19924;-88
2021/05/31 01:45:10;;;;;;;;;;;;;;;10.16;100.00;93073.28;5052106;28;19920;-88
2021/05/31 01:47:38;;;;;;;;;;;;;;;10.15;100.00;93080.19;5051906;28;19921;-87
2021/05/31 01:50:05;;;;;;;;;;;;;;;10.11;100.00;93076.50;5051742;28;19936;-88
2021/05/31 01:52:31;;;;;;;;;;;;;;;10.16;100.00;93078.44;5052007;28;19931;-86
2021/05/31 01:54:58;;;;;;;;;;;;;;;10.16;100.00;93070.72;5052079;28;20265;-84
2021/05/31 01:57:25;;;;;;;;;;;;;;;10.16;100.00;93068.16;5051796;28;19928;-88
2021/05/31 01:59:51;;;;;;;;;;;;;;;10.15;100.00;93061.47;5051814;28;19943;-85
2021/05/31 02:02:18;;;;;;;;;;;;;;;10.11;100.00;93058.53;5051787;28;19974;-85
2021/05/31 02:04:46;;;;;;;;;;;;;;;10.10;100.00;93062.06;5051582;28;20447;-85
2021/05/31 02:07:12;;;;;;;;;;;;;;;10.11;100.00;93062.88;5051566;28;19921;-88
2021/05/31 02:09:39;;;;;;;;;;;;;;;10.19;100.00;93056.69;5051775;28;19921;-87
2021/05/31 02:12:06;;;;;;;;;;;;;;;10.25;100.00;93053.28;5051539;28;19925;-86
2021/05/31 02:14:37;;;;;;;;;;;;;;;10.25;100.00;93054.06;5051344;28;20299;-87
2021/05/31 02:17:06;;;;;;;;;;;;;;;10.22;100.00;93046.78;5051626;28;19932;-87
2021/05/31 02:19:34;;;;;;;;;;;;;;;10.26;100.00;93049.69;5051468;28;19925;-87
2021/05/31 02:22:02;;;;;;;;;;;;;;;10.24;100.00;93054.28;5051416;28;19932;-86
2021/05/31 02:24:31;;;;;;;;;;;;;;;10.28;100.00;93052.88;5051112;28;19921;-88
2021/05/31 02:26:57;;;;;;;;;;;;;;;10.24;100.00;93049.91;5051171;28;20429;-87
2021/05/31 02:29:23;;;;;;;;;;;;;;;10.20;100.00;93045.41;5051382;28;19921;-87
2021/05/31 02:31:52;;;;;;;;;;;;;;;10.20;100.00;93048.00;5051233;28;19921;-87
2021/05/31 02:34:18;;;;;;;;;;;;;;;10.19;100.00;93049.78;5051327;28;19948;-87
2021/05/31 02:36:45;;;;;;;;;;;;;;;10.21;100.00;93055.47;5051189;28;20357;-85
2021/05/31 02:39:12;;;;;;;;;;;;;;;10.22;100.00;93057.03;5050995;28;20383;-86
2021/05/31 02:41:38;;;;;;;;;;;;;;;10.19;100.00;93049.78;5051146;28;20015;-86
2021/05/31 02:44:04;;;;;;;;;;;;;;;10.23;100.00;93047.56;5050912;28;19925;-87
2021/05/31 02:46:31;;;;;;;;;;;;;;;10.16;100.00;93043.28;5051180;28;19971;-87
2021/05/31 02:48:57;;;;;;;;;;;;;;;10.20;100.00;93051.34;5050950;28;19928;-88
2021/05/31 02:51:23;;;;;;;;;;;;;;;10.26;100.00;93052.28;5050779;28;19921;-89
2021/05/31 02:53:49;;;;;;;;;;;;;;;10.29;100.00;93049.28;5050750;28;20291;-87
2021/05/31 02:56:16;;;;;;;;;;;;;;;10.26;100.00;93042.00;5050993;28;19921;-87
2021/05/31 02:58:42;;;;;;;;;;;;;;;10.28;100.00;93051.06;5050802;28;19925;-88
2021/05/31 03:01:08;;;;;;;;;;;;;;;10.28;100.00;93051.06;5050943;28;19921;-87
2021/05/31 03:03:34;;;;;;;;;;;;;;;10.29;100.00;93055.19;5050580;28;19921;-87
2021/05/31 03:06:00;;;;;;;;;;;;;;;10.29;100.00;93049.28;5050436;28;19925;-87
2021/05/31 03:08:27;;;;;;;;;;;;;;;10.25;100.00;93043.81;5050581;28;19927;-87
2021/05/31 03:10:54;;;;;;;;;;;;;;;10.24;100.00;93049.13;5050440;28;19920;-86
2021/05/31 03:13:21;;;;;;;;;;;;;;;10.22;100.00;93048.53;5050731;28;20007;-87
2021/05/31 03:15:49;;;;;;;;;;;;;;;10.24;100.00;93044.00;5050468;28;19924;-86
2021/05/31 03:18:15;;;;;;;;;;;;;;;10.25;100.00;93038.66;5055607;28;20344;-88
2021/05/31 03:20:41;;;;;;;;;;;;;;;10.25;100.00;93041.25;5075326;28;19921;-86
2021/05/31 03:23:08;;;;;;;;;;;;;;;10.23;100.00;93045.78;5074370;28;19920;-85
2021/05/31 03:25:34;;;;;;;;;;;;;;;10.25;100.00;93037.88;5053588;28;19928;-86
2021/05/31 03:28:00;;;;;;;;;;;;;;;10.29;100.00;93036.47;5050391;28;19920;-85
2021/05/31 03:30:28;;;;;;;;;;;;;;;10.29;100.00;93039.03;5050267;28;20037;-85
2021/05/31 03:32:56;;;;;;;;;;;;;;;10.29;100.00;93046.72;5049881;28;19928;-86
2021/05/31 03:35:22;;;;;;;;;;;;;;;10.31;100.00;93043.97;5050045;28;20318;-85
2021/05/31 03:37:48;;;;;;;;;;;;;;;10.18;100.00;93042.28;5050026;28;19920;-85
2021/05/31 03:40:15;;;;;;;;;;;;;;;9.95;100.00;93049.56;5049832;28;19925;-85
2021/05/31 03:42:41;;;;;;;;;;;;;;;10.05;100.00;93041.41;5049795;28;20356;-86
2021/05/31 03:45:10;;;;;;;;;;;;;;;10.08;100.00;93045.31;5049853;28;20284;-89
2021/05/31 03:47:37;;;;;;;;;;;;;;;10.07;100.00;93041.97;5049996;28;19921;-88
2021/05/31 03:50:04;;;;;;;;;;;;;;;10.07;100.00;93043.75;5049720;28;19932;-87
2021/05/31 03:52:30;;;;;;;;;;;;;;;10.01;100.00;93046.16;5049932;28;19921;-87
2021/05/31 03:54:56;;;;;;;;;;;;;;;10.06;100.00;93045.53;5049993;28;19921;-86
2021/05/31 03:57:22;;;;;;;;;;;;;;;10.10;100.00;93043.34;5049877;28;19925;-86
2021/05/31 03:59:50;;;;;;;;;;;;;;;10.13;100.00;93043.69;5049505;28;19928;-86
2021/05/31 04:02:16;;;;;;;;;;;;;;;10.27;100.00;93046.94;5049182;28;19920;-89
2021/05/31 04:04:46;;;;;;;;;;;;;;;10.35;100.00;93053.59;5049518;28;19921;-89
2021/05/31 04:12:43;;;;;;;;;;;;;;;10.27;100.00;93049.50;5049604;28;20288;-90
2021/05/31 04:15:09;;;;;;;;;;;;;;;10.28;100.00;93051.06;5049719;28;20019;-91
2021/05/31 04:17:36;;;;;;;;;;;;;;;10.37;100.00;93051.56;5049208;28;20387;-90
2021/05/31 04:20:04;;;;;;;;;;;;;;;10.28;100.00;93048.50;5049575;28;19975;-88
2021/05/31 04:22:30;;;;;;;;;;;;;;;10.18;100.00;93050.00;5049560;28;19921;-88
2021/05/31 04:24:56;;;;;;;;;;;;;;;10.23;100.00;93052.72;5049634;28;19921;-87
2021/05/31 04:27:22;;;;;;;;;;;;;;;9.85;100.00;93052.59;5049719;28;19925;-89
2021/05/31 04:29:48;;;;;;;;;;;;;;;9.59;100.00;93054.34;5049122;28;19929;-87
2021/05/31 04:32:14;;;;;;;;;;;;;;;9.49;100.00;93047.13;5049536;28;19921;-87
2021/05/31 04:34:40;;;;;;;;;;;;;;;9.53;100.00;93054.41;5049234;28;19924;-92
2021/05/31 04:37:08;;;;;;;;;;;;;;;9.45;100.00;93050.31;5049105;28;19921;-86
2021/05/31 04:39:34;;;;;;;;;;;;;;;9.50;100.00;93047.91;5049254;28;20383;-88
2021/05/31 04:42:00;;;;;;;;;;;;;;;9.47;100.00;93051.66;5049171;28;20015;-87
2021/05/31 04:44:26;;;;;;;;;;;;;;;9.52;100.00;93048.47;5048975;28;19925;-88
2021/05/31 04:46:53;;;;;;;;;;;;;;;9.79;100.00;93047.50;5049213;28;19920;-86
2021/05/31 04:49:19;;;;;;;;;;;;;;;9.98;100.00;93041.47;5049345;28;19920;-87
2021/05/31 04:51:45;;;;;;;;;;;;;;;10.19;100.00;93041.28;5049309;28;19925;-86
2021/05/31 04:54:12;;;;;;;;;;;;;;;10.44;100.00;93041.28;5049377;28;19925;-87
2021/05/31 04:56:39;;;;;;;;;;;;;;;10.59;100.00;93045.28;5049413;28;19986;-86
2021/05/31 04:59:05;;;;;;;;;;;;;;;10.77;100.00;93047.06;5049082;28;19925;-85
2021/05/31 05:01:33;;;;;;;;;;;;;;;10.95;100.00;93049.66;5049302;28;19921;-85
2021/05/31 05:03:59;;;;;;;;;;;;;;;10.76;100.00;93046.28;5049299;28;19921;-86
2021/05/31 05:06:25;;;;;;;;;;;;;;;10.57;100.00;93040.38;5048873;28;19956;-85
2021/05/31 05:08:53;;;;;;;;;;;;;;;10.67;100.00;93043.22;5049112;28;20368;-84
2021/05/31 05:11:21;;;;;;;;;;;;;;;10.54;100.00;93048.50;5049170;28;19921;-87
2021/05/31 05:13:48;;;;;;;;;;;;;;;10.65;100.00;93045.22;5050002;28;19931;-87
2021/05/31 05:16:14;;;;;;;;;;;;;;;10.77;100.00;93045.28;5052820;28;20399;-87
2021/05/31 05:18:43;;;;;;;;;;;;;;;10.76;100.00;93043.72;5052708;28;19925;-89
2021/05/31 05:21:09;;;;;;;;;;;;;;;10.83;100.00;93052.13;5052794;28;19921;-87
2021/05/31 05:23:35;;;;;;;;;;;;;;;10.89;100.00;93054.84;5052904;28;19928;-87
2021/05/31 05:26:01;;;;;;;;;;;;;;;10.94;100.00;93055.00;5052354;28;19925;-85
2021/05/31 05:28:29;;;;;;;;;;;;;;;10.93;100.00;93050.84;5052123;28;19983;-86
2021/05/31 05:30:55;;;;;;;;;;;;;;;10.96;100.00;93060.69;5052453;28;19925;-87
2021/05/31 05:33:21;;;;;;;;;;;;;;;10.98;100.00;93061.28;5052222;28;19920;-84
2021/05/31 05:35:52;;;;;;;;;;;;;;;11.02;100.00;93054.69;5052000;28;20542;-86
2021/05/31 05:38:37;;;;;;;;;;;;;;;10.76;100.00;93064.28;5052072;28;19967;-87
2021/05/31 05:41:18;;;;;;;;;;;;;;;10.79;100.00;93065.63;5051987;28;19940;-87
2021/05/31 05:46:42;;;;;;;;;;;;;;;10.52;100.00;93065.91;5010136;28;19925;-88
2021/05/31 05:49:08;;;;;;;;;;;;;;;10.36;100.00;93073.13;5051810;28;19925;-87
2021/05/31 05:51:34;;;;;;;;;;;;;;;10.62;100.00;93073.09;5052726;28;20220;-86
2021/05/31 05:54:02;;;;;;;;;;;;;;;10.72;100.00;93070.84;5051775;28;19925;-90
2021/05/31 05:56:28;;;;;;;;;;;;;;;10.86;100.00;93061.19;5051670;28;19928;-86
2021/05/31 05:58:56;;;;;;;;;;;;;;;10.94;100.00;93066.03;5051725;28;19927;-87
2021/05/31 06:01:23;;;;;;;;;;;;;;;11.04;100.00;93068.13;5052262;28;20268;-84
2021/05/31 06:03:51;;;;;;;;;;;;;;;11.08;100.00;93063.34;5051653;28;19924;-86
2021/05/31 06:06:18;;;;;;;;;;;;;;;11.24;100.00;93056.81;5051909;28;19928;-87
2021/05/31 06:08:44;;;;;;;;;;;;;;;11.12;100.00;93066.25;5052057;28;19932;-85
2021/05/31 06:11:10;;;;;;;;;;;;;;;11.41;100.00;93049.28;5052090;28;19928;-88
2021/05/31 06:13:36;;;;;;;;;;;;;;;11.72;100.00;93052.59;5052271;28;19921;-82
2021/05/31 06:16:04;;;;;;;;;;;;;;;11.90;100.00;93045.84;5052214;28;20261;-87
2021/05/31 06:18:31;;;;;;;;;;;;;;;12.20;100.00;93052.72;5051354;28;19986;-88
2021/05/31 06:20:57;;;;;;;;;;;;;;;12.22;100.00;93042.97;5051259;28;19920;-84
2021/05/31 06:23:23;;;;;;;;;;;;;;;12.40;99.43;93044.66;5051128;28;20011;-85
2021/05/31 06:25:49;;;;;;;;;;;;;;;12.27;99.71;93042.31;5051173;28;19927;-85
2021/05/31 06:28:16;;;;;;;;;;;;;;;12.46;100.00;93035.25;5051033;28;19921;-86
2021/05/31 06:30:42;;;;;;;;;;;;;;;12.52;98.52;93041.28;5051119;28;19924;-84
2021/05/31 06:33:09;;;;;;;;;;;;;;;12.80;97.55;93045.72;5051487;28;19920;-86
2021/05/31 06:35:36;;;;;;;;;;;;;;;13.03;98.24;93038.97;5051469;28;20014;-85
2021/05/31 06:38:03;;;;;;;;;;;;;;;13.32;96.11;93040.75;5051338;28;19920;-84
2021/05/31 06:40:29;;;;;;;;;;;;;;;13.51;96.33;93036.22;5051053;28;19987;-84
2021/05/31 06:42:57;;;;;;;;;;;;;;;13.42;97.18;93035.78;5050884;28;19920;-85
2021/05/31 06:45:24;;;;;;;;;;;;;;;13.74;93.61;93037.91;5051159;28;19921;-87
2021/05/31 06:47:50;;;;;;;;;;;;;;;14.11;93.52;93034.06;5051032;28;20035;-83
2021/05/31 06:50:18;;;;;;;;;;;;;;;13.50;87.93;93042.41;5050977;28;19920;-83
2021/05/31 06:52:44;;;;;;;;;;;;;;;13.68;91.03;93040.63;5050945;28;19928;-87
2021/05/31 06:55:11;;;;;;;;;;;;;;;13.46;89.25;93036.09;5050607;28;19921;-84
2021/05/31 06:57:37;;;;;;;;;;;;;;;13.93;89.25;93037.66;5050834;28;19925;-85
2021/05/31 07:00:04;;;;;;;;;;;;;;;14.39;88.21;93035.00;5050796;28;19921;-86
2021/05/31 07:02:30;;;;;;;;;;;;;;;14.46;87.30;93042.59;5050382;28;19925;-87
2021/05/31 07:04:57;;;;;;;;;;;;;;;14.39;86.93;93040.16;5050762;28;19977;-85
2021/05/31 07:07:24;;;;;;;;;;;;;;;14.26;88.52;93037.91;5050363;28;19921;-86
2021/05/31 07:09:50;;;;;;;;;;;;;;;14.35;87.30;93033.13;5050616;28;19928;-83
2021/05/31 07:12:16;;;;;;;;;;;;;;;14.27;87.04;93040.25;5050411;28;19928;-85
2021/05/31 07:14:44;;;;;;;;;;;;;;;13.64;87.90;93035.16;5050435;28;19925;-87
2021/05/31 07:17:10;;;;;;;;;;;;;;;13.68;85.32;93027.72;5050309;28;19931;-83
2021/05/31 07:19:36;;;;;;;;;;;;;;;13.89;87.09;93024.44;5050636;28;19927;-84
2021/05/31 07:22:03;;;;;;;;;;;;;;;14.04;86.01;93025.72;5050229;28;19996;-85
2021/05/31 07:24:30;;;;;;;;;;;;;;;14.22;85.92;93029.06;5050221;28;19924;-83
2021/05/31 07:26:57;;;;;;;;;;;;;;;14.18;85.49;93035.72;5050439;28;20303;-83
2021/05/31 07:29:23;;;;;;;;;;;;;;;14.56;85.93;93026.44;5050337;28;19976;-85
2021/05/31 07:31:49;;;;;;;;;;;;;;;14.75;86.65;93026.16;5050155;28;19935;-84
2021/05/31 07:34:15;;;;;;;;;;;;;;;14.92;83.97;93031.28;5050032;28;19921;-85
2021/05/31 07:36:41;;;;;;;;;;;;;;;14.39;86.64;93018.69;5049549;28;19970;-84
2021/05/31 07:39:08;;;;;;;;;;;;;;;14.56;86.75;92998.78;5050067;28;19921;-82
2021/05/31 07:41:35;;;;;;;;;;;;;;;14.52;84.93;93025.31;5049964;28;19936;-88
2021/05/31 07:44:01;;;;;;;;;;;;;;;14.18;84.19;93022.78;5049845;28;19967;-85
2021/05/31 07:46:27;;;;;;;;;;;;;;;14.42;85.18;93021.59;5050237;28;19971;-86
2021/05/31 07:48:53;;;;;;;;;;;;;;;14.65;81.68;93027.59;5050097;28;20333;-83
2021/05/31 07:51:21;;;;;;;;;;;;;;;14.87;82.86;93021.69;5055094;28;20645;-85
2021/05/31 07:53:48;;;;;;;;;;;;;;;14.91;79.78;93027.91;5067090;28;19925;-85
2021/05/31 07:56:15;;;;;;;;;;;;;;;14.74;78.84;93019.41;5061865;28;19925;-85
2021/05/31 07:58:43;;;;;;;;;;;;;;;14.87;78.07;93024.25;5050153;28;19928;-85
2021/05/31 08:01:09;;;;;;;;;;;;;;;15.05;79.26;93017.22;5049418;28;19927;-86
2021/05/31 08:03:35;;;;;;;;;;;;;;;15.22;79.29;93010.16;5049060;28;19936;-82
2021/05/31 08:06:01;;;;;;;;;;;;;;;15.41;80.46;93015.00;5049094;28;20387;-84
2021/05/31 08:08:27;;;;;;;;;;;;;;;15.55;77.46;93012.78;5048454;28;19921;-84
2021/05/31 08:10:54;;;;;;;;;;;;;;;15.47;75.72;93010.66;5049545;28;19921;-84
2021/05/31 08:13:20;;;;;;;;;;;;;;;15.72;77.32;93001.53;5049625;28;20365;-83
2021/05/31 08:15:47;;;;;;;;;;;;;;;15.15;73.33;93006.19;5049922;28;19925;-86
2021/05/31 08:18:13;;;;;;;;;;;;;;;14.99;77.80;93007.84;5048843;28;20003;-87
2021/05/31 08:20:40;;;;;;;;;;;;;;;14.41;78.61;93007.09;5048373;28;20379;-87
2021/05/31 08:23:06;;;;;;;;;;;;;;;14.63;76.97;93003.75;5049106;28;19929;-88
2021/05/31 08:25:33;;;;;;;;;;;;;;;15.03;80.93;93004.53;5048879;28;19921;-85
2021/05/31 08:28:01;;;;;;;;;;;;;;;15.31;77.66;93005.31;5048819;28;19920;-84
2021/05/31 08:30:27;;;;;;;;;;;;;;;15.16;78.43;93008.53;5048899;28;20315;-85
2021/05/31 08:32:54;;;;;;;;;;;;;;;15.02;77.99;93002.97;5048872;28;19925;-84
2021/05/31 08:35:20;;;;;;;;;;;;;;;14.37;76.68;93008.63;5048758;28;19932;-86
2021/05/31 08:37:47;;;;;;;;;;;;;;;14.49;81.76;93003.31;5048331;28;19925;-86
2021/05/31 08:40:13;;;;;;;;;;;;;;;14.37;81.36;93006.03;5048661;28;19920;-84
2021/05/31 08:42:40;;;;;;;;;;;;;;;14.19;79.96;93001.91;5048489;28;20376;-86
2021/05/31 08:45:08;;;;;;;;;;;;;;;13.90;82.39;92994.25;5045716;28;19924;-84
2021/05/31 08:47:38;;;;;;;;;;;;;;;14.03;82.66;92998.31;5048927;28;19931;-86
2021/05/31 08:50:06;;;;;;;;;;;;;;;13.80;83.28;92997.44;5052674;28;19932;-84
2021/05/31 08:52:32;;;;;;;;;;;;;;;14.05;81.11;92996.28;5052718;28;19925;-86
2021/05/31 08:54:59;;;;;;;;;;;;;;;13.94;80.88;92999.72;5052313;28;19962;-85
2021/05/31 08:57:26;;;;;;;;;;;;;;;13.73;79.73;92999.41;5052248;28;19927;-88
2021/05/31 08:59:52;;;;;;;;;;;;;;;14.04;81.08;92989.56;5052058;28;19921;-87
2021/05/31 09:02:18;;;;;;;;;;;;;;;13.72;84.04;92997.84;5051996;28;19921;-87
2021/05/31 09:04:45;;;;;;;;;;;;;;;13.97;85.34;92996.66;5052298;28;20287;-85
2021/05/31 09:07:12;;;;;;;;;;;;;;;13.93;83.84;93000.75;5051899;28;20030;-87
2021/05/31 10:12:52;;;;;;;1.77;1.10;;;;;;;15.57;72.92;92955.59;5022798;27;1364389;-88
2021/05/31 10:15:22;;;;;;;1.73;1.10;;;;;;;15.54;73.63;92923.22;5047882;28;20485;-87
2021/05/31 10:17:51;;;;;;;1.92;1.13;;;;;;;15.05;74.33;92906.75;5047261;28;20049;-87
2021/05/31 10:20:18;;;;;;;1.70;1.00;;;;;;;15.33;71.18;92911.94;5046997;28;20041;-90
2021/05/31 10:22:46;;;;;;;1.83;0.98;;;;;;;15.50;71.65;92912.56;5046421;28;20128;-88
2021/05/31 10:25:14;;;;;;;2.10;1.45;;;;;;;16.06;72.81;92959.09;5047304;28;20044;-86
2021/05/31 10:27:46;;;;;;;2.08;1.30;;;;;;;16.15;70.41;92947.19;5047537;28;20041;-90
2021/05/31 10:30:16;;;;;;;2.08;1.00;;;;;;;15.93;69.24;92905.91;5046748;28;20049;-86
2021/05/31 10:32:43;;;;;;;1.42;1.00;;;;;;;16.55;72.98;92951.06;5047380;28;20085;-85
2021/05/31 10:35:21;;;;;;;1.88;0.80;;;;;;;16.22;67.10;92888.19;5046858;28;20098;-89
2021/05/31 10:37:54;;;;;;;1.75;1.20;;;;;;;15.97;67.84;92906.97;5046692;28;20128;-88
2021/05/31 10:40:33;;;;;;;1.42;0.90;;;;;;;15.43;65.34;92952.63;5047072;28;20059;-89
2021/05/31 10:43:13;;;;;;;0.93;0.60;;;;;;;15.46;67.74;92931.44;5047150;28;20057;-91
2021/05/31 10:45:43;;;;;;;1.77;1.00;;;;;;;14.97;66.09;92873.59;5035053;28;20050;-89
2021/05/31 10:48:17;;;;;;;1.38;0.80;;;;;;;15.68;65.54;92912.44;5026838;28;20053;-91
2021/05/31 10:50:58;;;;;;;1.58;0.80;;;;;;;15.67;67.10;92874.63;5026832;28;20137;-90
2021/05/31 10:53:27;;;;;;;1.88;0.98;;;;;;;15.91;68.14;92880.22;5027082;28;20062;-89
2021/05/31 10:56:04;;;;;;;1.45;0.88;;;;;;;16.56;68.54;92872.22;5027270;28;20046;-90
2021/05/31 10:58:35;;;;;;;1.88;0.68;;;;;;;16.70;65.36;92884.69;5024054;28;20050;-89
2021/05/31 11:01:07;;;;;;;1.48;0.90;;;;;;;17.30;64.49;92925.84;5007085;28;20046;-87
2021/05/31 11:03:45;;;;;;;1.70;0.73;;;;;;;17.44;65.58;92902.75;5007212;28;20050;-87
2021/05/31 11:06:12;;;;;;;2.20;0.95;;;;;;;17.49;63.93;92907.94;5006867;28;20038;-87
2021/05/31 11:08:48;;;;;;;2.05;0.88;;;;;;;17.35;62.38;92912.88;5016822;28;20489;-87
2021/05/31 11:11:34;;;;;;;1.75;0.93;;;;;;;16.80;62.66;92871.75;5026293;28;20054;-90
2021/05/31 11:14:01;;;;;;;2.28;1.10;;;;;;;17.04;63.87;92930.22;5026294;28;20049;-87
2021/05/31 11:16:34;;;;;;;1.48;1.17;;;;;;;16.57;64.29;92904.09;5026065;28;20140;-86
2021/05/31 11:19:03;;;;;;;1.42;0.80;;;;;;;16.19;66.35;92865.34;5026088;28;20053;-88
2021/05/31 11:21:32;;;;;;;1.67;1.20;;;;;;;16.52;66.08;92917.84;5026461;28;20144;-87
2021/05/31 11:24:04;;;;;;;1.00;0.60;;;;;;;15.62;65.04;92889.13;5013941;28;20049;-89
2021/05/31 11:26:33;;;;;;;1.73;0.65;;;;;;;16.17;63.27;92914.81;5008629;28;20068;-86
2021/05/31 11:29:00;;;;;;;1.15;0.70;;;;;;;15.90;63.95;92847.56;5011356;28;20057;-87
2021/05/31 11:31:57;;;;;;;1.33;0.70;;;;;;;15.94;64.94;92809.03;5015410;28;20058;-86
2021/05/31 11:34:24;;;;;;;1.55;0.60;;;;;;;16.45;61.13;92849.91;5032353;28;20087;-86
2021/05/31 11:36:51;;;;;;;1.27;0.80;;;;;;;16.89;63.24;92903.16;5032862;28;20124;-87
2021/05/31 11:39:19;;;;;;;1.27;0.70;;;;;;;17.29;63.72;92900.13;5032504;28;20057;-86
2021/05/31 11:41:47;;;;;;;1.00;0.70;;;;;;;17.72;61.57;92894.66;5032212;28;20052;-86
2021/05/31 11:44:26;;;;;;;1.70;1.17;;;;;;;17.30;58.59;92894.69;5032647;28;20045;-86
2021/05/31 11:47:04;;;;;;;1.85;0.60;;;;;;;17.90;58.38;92895.94;5032195;28;20045;-86
2021/05/31 11:49:37;;;;;;;0.57;0.43;;;;;;;18.09;58.17;92879.84;5031887;28;20574;-84
2021/05/31 11:52:05;;;;;;;1.08;0.73;;;;;;;18.11;57.45;92878.53;5032154;28;20045;-88
2021/05/31 11:54:46;;;;;;;1.98;0.93;;;;;;;18.04;57.52;92867.59;5031988;28;20060;-85
2021/05/31 11:57:14;;;;;;;1.50;0.82;;;;;;;18.02;57.71;92867.84;5032228;28;20050;-87
2021/05/31 11:59:42;;;;;;;0.98;0.70;;;;;;;16.94;60.26;92864.25;5032030;28;20045;-85
2021/05/31 12:02:12;;;;;;;1.52;0.60;;;;;;;16.61;62.79;92822.19;5047259;28;20129;-86
2021/05/31 12:04:40;;;;;;;1.13;0.80;;;;;;;16.53;60.96;92840.84;5053519;28;20051;-86
2021/05/31 12:07:09;;;;;;;1.40;0.70;;;;;;;16.89;61.02;92882.41;5034724;28;20080;-89
2021/05/31 12:09:37;;;;;;;0.90;0.60;;;;;;;16.32;59.26;92866.69;5014110;28;20053;-87
2021/05/31 12:12:04;;;;;;;1.67;1.13;;;;;;;17.03;60.94;92858.59;5011738;28;20053;-86
2021/05/31 12:14:41;;;;;;;1.80;0.88;;;;;;;17.47;59.64;92850.31;5011756;28;20046;-84
2021/05/31 12:17:11;;;;;;;1.75;0.77;;;;;;;17.32;55.56;92813.97;5011704;28;20052;-86
2021/05/31 12:19:39;;;;;;;1.70;0.70;;;;;;;17.40;58.02;92851.59;5011858;28;20089;-85
2021/05/31 12:22:06;;;;;;;1.17;0.65;;;;;;;17.54;55.43;92857.81;5011761;28;20045;-85
2021/05/31 12:24:35;;;;;;;0.88;0.60;;;;;;;18.15;54.81;92850.94;5011547;28;20092;-83
2021/05/31 12:27:03;;;;;;;1.63;0.75;;;;;;;18.68;52.06;92854.91;5011738;28;20128;-83
2021/05/31 12:29:34;;;;;;;0.70;0.43;;;;;;;18.88;52.40;92844.63;5011726;28;20045;-84
2021/05/31 12:32:03;;;;;;;1.35;0.75;;;;;;;18.61;54.21;92830.97;5011610;28;20046;-84
2021/05/31 12:34:32;;;;;;;2.33;1.05;;;;;;;17.74;49.75;92846.59;5010678;28;20176;-84
2021/05/31 12:36:59;;;;;;;0.98;0.57;;;;;;;17.29;50.97;92824.84;5011334;28;20119;-84
2021/05/31 12:39:25;;;;;;;1.08;0.60;;;;;;;17.74;55.36;92832.84;5011647;28;20092;-86
2021/05/31 12:41:52;;;;;;;0.93;0.60;;;;;;;16.94;53.96;92802.00;5011410;28;20121;-87
2021/05/31 12:44:19;;;;;;;10.20;0.90;;;;;;;17.01;58.98;92837.28;5011102;28;20505;-85
2021/05/31 12:46:46;;;;;;;1.50;0.80;;;;;;;16.41;59.61;92835.88;5011557;28;20049;-88
2021/05/31 12:49:15;;;;;;;1.30;0.85;;;;;;;16.41;63.45;92831.50;5011320;28;20060;-85
2021/05/31 12:51:53;;;;;;;1.92;1.10;;;;;;;16.12;66.05;92828.53;5011935;28;20045;-84
2021/05/31 12:54:20;;;;;;;2.92;1.48;;;;;;;15.49;67.53;92841.13;5010994;28;20050;-86
2021/05/31 12:56:47;;;;;;;1.77;1.08;;;;;;;14.56;70.11;92819.66;5011253;28;20533;-84
2021/05/31 12:59:16;;;;;;;1.33;1.00;;;;;;;14.30;71.92;92825.34;5010866;28;20054;-84
2021/05/31 13:01:46;;;;;;;1.58;0.70;;;;;;;14.16;70.38;92855.94;5010947;28;20056;-87
2021/05/31 13:04:12;;;;;;;1.60;0.85;;;;;;;13.74;73.76;92841.72;5011275;28;20148;-87
2021/05/31 13:06:40;;;;;;;10.27;3.63;;;;;;;13.40;75.46;92791.94;5011181;28;20185;-82
2021/05/31 13:09:20;;;;;;;3.58;0.65;;;;;;;13.50;76.00;92854.03;5010797;28;20467;-85
2021/05/31 13:11:47;;;;;;;0.82;0.80;;;;;;;13.36;77.23;92841.44;5010907;28;20061;-84
2021/05/31 13:14:22;;;;;;;1.70;1.08;;;;;;;13.40;78.22;92849.47;5010816;28;20056;-83
2021/05/31 13:16:55;;;;;;;1.63;0.85;;;;;;;13.32;78.71;92860.19;5010194;28;20092;-84
2021/05/31 13:19:22;;;;;;;1.75;0.70;;;;;;;12.99;83.15;92854.00;5010560;28;20049;-84
2021/05/31 13:21:56;;;;;;;1.30;0.90;;;;;;;12.98;82.88;92855.00;5009819;28;20076;-84
2021/05/31 13:24:25;;;;;;;1.20;0.80;;;;;;;13.10;87.10;92859.09;5007861;28;20553;-84
2021/05/31 13:26:52;;;;;;;5.28;1.45;;;;;;;12.87;85.13;92852.25;5010613;28;20042;-86
2021/05/31 13:29:21;;;;;;;1.38;0.85;;;;;;;13.00;85.68;92842.69;5010727;28;20041;-84
2021/05/31 13:31:48;;;;;;;2.22;1.48;;;;;;;13.12;87.95;92843.38;5010217;28;20045;-85
2021/05/31 13:34:15;;;;;;;1.25;0.80;;;;;;;13.16;84.99;92867.69;5010483;28;20049;-85
2021/05/31 13:36:41;;;;;;;1.85;0.85;;;;;;;13.37;85.54;92868.00;5010354;28;20145;-84